EZY2112 EHRD-EGCC
Flight info
| Callsign | EZY2112 |
|---|---|
| Flight time | 0h 41m |
| Altitude | 36000 |
| Route | SOMEL2A ABNED L980 LAM UN57 WELIN T420 TNT DCT |
| Aircraft | A320/M-SDE3FGHIRWY/LB1 |
Departure
| Time | 2026-05-07 10:35 |
|---|---|
| Airport | Rotterdam The Hague Airport (EHRD) |
Arrival
| Time | 2026-05-07 11:17 |
|---|---|
| Airport | Manchester Airport (EGCC) |
| Time | Latitude | Longitude | Altitude | Speed | Heading |
|---|---|---|---|---|---|
| 2026-05-07 09:55 | 51.94921 | 4.43525 | 1 ft | 0 kts | 327° |
| 2026-05-07 10:31 | 51.94938 | 4.43510 | 2 ft | 11 kts | 339° |
| 2026-05-07 10:31 | 51.95018 | 4.43638 | 1 ft | 16 kts | 25° |
| 2026-05-07 10:32 | 51.95125 | 4.43557 | 1 ft | 21 kts | 327° |
| 2026-05-07 10:32 | 51.95239 | 4.43435 | 1 ft | 15 kts | 309° |
| 2026-05-07 10:32 | 51.95211 | 4.43323 | 1 ft | 12 kts | 238° |
| 2026-05-07 10:32 | 51.95158 | 4.43188 | 2 ft | 7 kts | 239° |
| 2026-05-07 10:33 | 51.95153 | 4.43174 | 1 ft | 0 kts | 243° |
| 2026-05-07 10:33 | 51.95153 | 4.43172 | 1 ft | 2 kts | 244° |
| 2026-05-07 10:33 | 51.95201 | 4.43094 | 1 ft | 20 kts | 358° |
| 2026-05-07 10:33 | 51.95341 | 4.43159 | 2 ft | 24 kts | 48° |
| 2026-05-07 10:34 | 51.95367 | 4.43218 | 1 ft | 0 kts | 57° |
| 2026-05-07 10:35 | 51.95381 | 4.43253 | 1 ft | 32 kts | 57° |
| 2026-05-07 10:35 | 51.95749 | 4.44164 | 9 ft | 155 kts | 56° |
| 2026-05-07 10:35 | 51.96355 | 4.45644 | 928 ft | 157 kts | 47° |
| 2026-05-07 10:35 | 51.97327 | 4.46468 | 1695 ft | 174 kts | 7° |
| 2026-05-07 10:36 | 51.98626 | 4.46243 | 2251 ft | 199 kts | 348° |
| 2026-05-07 10:36 | 52.00032 | 4.45862 | 2802 ft | 216 kts | 6° |
| 2026-05-07 10:36 | 52.01386 | 4.46911 | 3567 ft | 223 kts | 49° |
| 2026-05-07 10:36 | 52.01973 | 4.49206 | 4462 ft | 228 kts | 88° |
| 2026-05-07 10:37 | 52.01579 | 4.51776 | 4947 ft | 251 kts | 117° |
| 2026-05-07 10:37 | 52.00384 | 4.53926 | 5060 ft | 264 kts | 147° |
| 2026-05-07 10:37 | 51.98626 | 4.54756 | 5080 ft | 268 kts | 180° |
| 2026-05-07 10:37 | 51.96855 | 4.53829 | 5598 ft | 273 kts | 214° |
| 2026-05-07 10:38 | 51.95616 | 4.51526 | 6460 ft | 276 kts | 245° |
| 2026-05-07 10:38 | 51.95247 | 4.48572 | 7207 ft | 278 kts | 266° |
| 2026-05-07 10:38 | 51.95139 | 4.45434 | 7973 ft | 280 kts | 267° |
| 2026-05-07 10:38 | 51.95064 | 4.42268 | 8737 ft | 282 kts | 269° |
| 2026-05-07 10:39 | 51.95184 | 4.40168 | 9207 ft | 284 kts | 283° |
| 2026-05-07 10:39 | 51.96004 | 4.37253 | 9900 ft | 288 kts | 306° |
| 2026-05-07 10:39 | 51.97471 | 4.34967 | 10253 ft | 302 kts | 321° |
| 2026-05-07 10:39 | 51.99176 | 4.32807 | 10404 ft | 318 kts | 322° |
| 2026-05-07 10:40 | 52.00958 | 4.30628 | 10731 ft | 323 kts | 322° |
| 2026-05-07 10:40 | 52.02764 | 4.28437 | 11116 ft | 325 kts | 323° |
| 2026-05-07 10:40 | 52.04571 | 4.26231 | 11507 ft | 326 kts | 322° |
| 2026-05-07 10:40 | 52.06388 | 4.23992 | 11887 ft | 328 kts | 322° |
| 2026-05-07 10:41 | 52.08183 | 4.21760 | 12247 ft | 330 kts | 322° |
| 2026-05-07 10:41 | 52.10003 | 4.19481 | 12600 ft | 330 kts | 321° |
| 2026-05-07 10:41 | 52.11824 | 4.17194 | 12953 ft | 331 kts | 322° |
| 2026-05-07 10:41 | 52.13648 | 4.14904 | 13269 ft | 332 kts | 321° |
| 2026-05-07 10:42 | 52.15482 | 4.12604 | 13607 ft | 333 kts | 321° |
| 2026-05-07 10:42 | 52.17327 | 4.10289 | 13890 ft | 335 kts | 322° |
| 2026-05-07 10:42 | 52.19178 | 4.07966 | 14132 ft | 337 kts | 321° |
| 2026-05-07 10:42 | 52.21031 | 4.05635 | 14392 ft | 337 kts | 322° |
| 2026-05-07 10:43 | 52.22894 | 4.03286 | 14612 ft | 339 kts | 322° |
| 2026-05-07 10:43 | 52.24766 | 4.00929 | 14840 ft | 341 kts | 322° |
| 2026-05-07 10:43 | 52.26646 | 3.98569 | 15102 ft | 340 kts | 322° |
| 2026-05-07 10:43 | 52.28487 | 3.96251 | 15692 ft | 331 kts | 321° |
| 2026-05-07 10:44 | 52.30304 | 3.93954 | 16109 ft | 329 kts | 321° |
| 2026-05-07 10:44 | 52.32089 | 3.91689 | 16449 ft | 329 kts | 321° |
| 2026-05-07 10:44 | 52.33909 | 3.89402 | 16733 ft | 331 kts | 324° |
| 2026-05-07 10:44 | 52.35875 | 3.87405 | 17007 ft | 334 kts | 331° |
| 2026-05-07 10:45 | 52.37952 | 3.85670 | 17280 ft | 336 kts | 332° |
| 2026-05-07 10:45 | 52.39978 | 3.83750 | 17551 ft | 337 kts | 321° |
| 2026-05-07 10:45 | 52.41571 | 3.80971 | 17831 ft | 336 kts | 302° |
| 2026-05-07 10:45 | 52.42475 | 3.77476 | 18095 ft | 336 kts | 282° |
| 2026-05-07 10:46 | 52.42584 | 3.73660 | 18327 ft | 337 kts | 262° |
| 2026-05-07 10:46 | 52.41867 | 3.70000 | 18491 ft | 340 kts | 242° |
| 2026-05-07 10:46 | 52.40429 | 3.66923 | 18685 ft | 342 kts | 227° |
| 2026-05-07 10:46 | 52.38800 | 3.64091 | 18874 ft | 342 kts | 227° |
| 2026-05-07 10:47 | 52.33173 | 3.54380 | 19459 ft | 345 kts | 227° |
| 2026-05-07 10:47 | 52.26544 | 3.42944 | 20096 ft | 349 kts | 227° |
| 2026-05-07 10:47 | 52.19844 | 3.31411 | 20692 ft | 351 kts | 227° |
| 2026-05-07 10:47 | 52.13172 | 3.20014 | 21234 ft | 353 kts | 227° |
| 2026-05-07 10:48 | 52.06273 | 3.08271 | 21760 ft | 354 kts | 227° |
| 2026-05-07 10:48 | 51.99431 | 2.96677 | 22274 ft | 355 kts | 226° |
| 2026-05-07 10:48 | 51.92721 | 2.85393 | 22802 ft | 354 kts | 226° |
| 2026-05-07 10:48 | 51.85895 | 2.73912 | 23337 ft | 355 kts | 226° |
| 2026-05-07 10:49 | 51.81165 | 2.60164 | 23833 ft | 354 kts | 260° |
| 2026-05-07 10:49 | 51.80057 | 2.44318 | 24316 ft | 354 kts | 263° |
| 2026-05-07 10:49 | 51.78897 | 2.28512 | 24783 ft | 355 kts | 263° |
| 2026-05-07 10:49 | 51.77852 | 2.12645 | 25259 ft | 355 kts | 265° |
| 2026-05-07 10:50 | 51.76958 | 1.96780 | 25747 ft | 355 kts | 264° |
| 2026-05-07 10:50 | 51.75996 | 1.80937 | 26244 ft | 354 kts | 264° |
| 2026-05-07 10:50 | 51.74998 | 1.65085 | 26747 ft | 355 kts | 264° |
| 2026-05-07 10:50 | 51.73997 | 1.49252 | 27255 ft | 355 kts | 264° |
| 2026-05-07 10:51 | 51.72970 | 1.33452 | 27790 ft | 355 kts | 264° |
| 2026-05-07 10:51 | 51.71918 | 1.17581 | 28334 ft | 355 kts | 264° |
| 2026-05-07 10:51 | 51.70838 | 1.01751 | 28884 ft | 355 kts | 263° |
| 2026-05-07 10:51 | 51.69746 | 0.85754 | 29111 ft | 365 kts | 263° |
| 2026-05-07 10:52 | 51.68590 | 0.69256 | 29115 ft | 376 kts | 263° |
| 2026-05-07 10:52 | 51.67382 | 0.52495 | 29067 ft | 377 kts | 263° |
| 2026-05-07 10:52 | 51.65917 | 0.18832 | 29130 ft | 379 kts | 283° |
| 2026-05-07 10:53 | 51.71088 | 0.04556 | 29034 ft | 378 kts | 316° |
| 2026-05-07 10:53 | 51.78546 | -0.07690 | 29148 ft | 377 kts | 314° |
| 2026-05-07 10:53 | 51.93314 | -0.32232 | 28999 ft | 381 kts | 314° |
| 2026-05-07 10:54 | 52.00585 | -0.44390 | 29170 ft | 378 kts | 314° |
| 2026-05-07 10:54 | 52.07947 | -0.56761 | 29063 ft | 384 kts | 315° |
| 2026-05-07 10:54 | 52.22701 | -0.81772 | 29172 ft | 380 kts | 314° |
| 2026-05-07 10:55 | 52.31316 | -0.91693 | 29010 ft | 384 kts | 330° |
| 2026-05-07 10:55 | 52.40393 | -1.00808 | 29015 ft | 382 kts | 329° |
| 2026-05-07 10:55 | 52.50281 | -1.10735 | 29041 ft | 384 kts | 330° |
| 2026-05-07 10:56 | 52.54865 | -1.15284 | 29012 ft | 384 kts | 332° |
| 2026-05-07 10:56 | 52.57171 | -1.17413 | 28219 ft | 376 kts | 333° |
| 2026-05-07 10:56 | 52.59464 | -1.19427 | 27104 ft | 371 kts | 333° |
| 2026-05-07 10:57 | 52.61735 | -1.21371 | 26044 ft | 365 kts | 333° |
| 2026-05-07 10:57 | 52.63975 | -1.23282 | 25012 ft | 360 kts | 333° |
| 2026-05-07 10:57 | 52.66170 | -1.25179 | 24029 ft | 354 kts | 332° |
| 2026-05-07 10:57 | 52.68339 | -1.27077 | 22975 ft | 350 kts | 331° |
| 2026-05-07 10:58 | 52.70463 | -1.28952 | 21928 ft | 344 kts | 330° |
| 2026-05-07 10:58 | 52.72532 | -1.30787 | 20970 ft | 338 kts | 330° |
| 2026-05-07 10:58 | 52.74576 | -1.32609 | 20090 ft | 332 kts | 330° |
| 2026-05-07 10:58 | 52.76588 | -1.34408 | 19205 ft | 325 kts | 330° |
| 2026-05-07 10:59 | 52.78557 | -1.36172 | 18352 ft | 319 kts | 330° |
| 2026-05-07 10:59 | 52.80525 | -1.37933 | 16839 ft | 327 kts | 330° |
| 2026-05-07 10:59 | 52.82546 | -1.39741 | 15509 ft | 330 kts | 330° |
| 2026-05-07 10:59 | 52.84551 | -1.41536 | 14396 ft | 326 kts | 330° |
| 2026-05-07 11:00 | 52.86532 | -1.43310 | 13266 ft | 321 kts | 330° |
| 2026-05-07 11:00 | 52.88482 | -1.45057 | 12105 ft | 316 kts | 330° |
| 2026-05-07 11:00 | 52.90407 | -1.46781 | 10964 ft | 312 kts | 330° |
| 2026-05-07 11:00 | 52.92289 | -1.48471 | 9893 ft | 308 kts | 330° |
| 2026-05-07 11:01 | 52.94120 | -1.50118 | 9342 ft | 291 kts | 329° |
| 2026-05-07 11:01 | 52.95884 | -1.51701 | 9074 ft | 285 kts | 330° |
| 2026-05-07 11:01 | 52.97627 | -1.53267 | 8540 ft | 281 kts | 330° |
| 2026-05-07 11:01 | 52.99235 | -1.54714 | 8032 ft | 255 kts | 330° |
| 2026-05-07 11:02 | 53.00769 | -1.56095 | 7524 ft | 246 kts | 329° |
| 2026-05-07 11:02 | 53.02250 | -1.57432 | 7145 ft | 234 kts | 328° |
| 2026-05-07 11:02 | 53.03613 | -1.58659 | 7067 ft | 210 kts | 328° |
| 2026-05-07 11:02 | 53.04855 | -1.59779 | 7076 ft | 201 kts | 327° |
| 2026-05-07 11:03 | 53.06124 | -1.60938 | 7089 ft | 225 kts | 327° |
| 2026-05-07 11:03 | 53.07551 | -1.62245 | 7080 ft | 239 kts | 329° |
| 2026-05-07 11:03 | 53.09028 | -1.63589 | 7078 ft | 242 kts | 328° |
| 2026-05-07 11:03 | 53.10512 | -1.64934 | 7077 ft | 243 kts | 329° |
| 2026-05-07 11:04 | 53.11993 | -1.66276 | 7075 ft | 243 kts | 329° |
| 2026-05-07 11:04 | 53.13477 | -1.67621 | 7077 ft | 243 kts | 329° |
| 2026-05-07 11:04 | 53.14955 | -1.68962 | 7080 ft | 242 kts | 328° |
| 2026-05-07 11:04 | 53.16438 | -1.70313 | 7079 ft | 243 kts | 329° |
| 2026-05-07 11:05 | 53.17959 | -1.71624 | 7075 ft | 250 kts | 333° |
| 2026-05-07 11:05 | 53.19579 | -1.72762 | 7078 ft | 254 kts | 335° |
| 2026-05-07 11:05 | 53.21216 | -1.73863 | 7075 ft | 254 kts | 335° |
| 2026-05-07 11:05 | 53.22850 | -1.74943 | 7069 ft | 247 kts | 336° |
| 2026-05-07 11:06 | 53.24389 | -1.75967 | 7073 ft | 229 kts | 336° |
| 2026-05-07 11:06 | 53.25824 | -1.76903 | 7072 ft | 214 kts | 335° |
| 2026-05-07 11:06 | 53.27170 | -1.77773 | 7070 ft | 203 kts | 335° |
| 2026-05-07 11:06 | 53.28463 | -1.78601 | 7078 ft | 202 kts | 335° |
| 2026-05-07 11:07 | 53.29776 | -1.79437 | 7075 ft | 202 kts | 335° |
| 2026-05-07 11:07 | 53.31089 | -1.80264 | 7075 ft | 201 kts | 336° |
| 2026-05-07 11:07 | 53.32397 | -1.81101 | 7078 ft | 201 kts | 336° |
| 2026-05-07 11:07 | 53.33701 | -1.81949 | 7069 ft | 200 kts | 335° |
| 2026-05-07 11:08 | 53.35015 | -1.82806 | 6737 ft | 205 kts | 335° |
| 2026-05-07 11:08 | 53.36355 | -1.83666 | 6200 ft | 207 kts | 335° |
| 2026-05-07 11:08 | 53.37662 | -1.84494 | 6037 ft | 198 kts | 335° |
| 2026-05-07 11:08 | 53.38954 | -1.85315 | 5717 ft | 199 kts | 336° |
| 2026-05-07 11:09 | 53.40242 | -1.86137 | 5302 ft | 198 kts | 335° |
| 2026-05-07 11:09 | 53.41528 | -1.86967 | 4983 ft | 195 kts | 335° |
| 2026-05-07 11:09 | 53.42752 | -1.87746 | 4998 ft | 185 kts | 335° |
| 2026-05-07 11:09 | 53.43941 | -1.88489 | 4899 ft | 180 kts | 335° |
| 2026-05-07 11:10 | 53.45121 | -1.89221 | 4567 ft | 181 kts | 335° |
| 2026-05-07 11:10 | 53.46301 | -1.89968 | 4272 ft | 181 kts | 335° |
| 2026-05-07 11:10 | 53.47267 | -1.91166 | 4015 ft | 169 kts | 294° |
| 2026-05-07 11:10 | 53.47550 | -1.93043 | 4006 ft | 168 kts | 270° |
| 2026-05-07 11:11 | 53.47585 | -1.95003 | 4000 ft | 167 kts | 266° |
| 2026-05-07 11:11 | 53.47582 | -1.96954 | 4008 ft | 167 kts | 265° |
| 2026-05-07 11:11 | 53.47572 | -1.98895 | 3996 ft | 166 kts | 265° |
| 2026-05-07 11:11 | 53.47553 | -2.00841 | 3992 ft | 167 kts | 264° |
| 2026-05-07 11:12 | 53.47254 | -2.02698 | 3802 ft | 165 kts | 236° |
| 2026-05-07 11:12 | 53.46562 | -2.04219 | 3590 ft | 164 kts | 229° |
| 2026-05-07 11:12 | 53.45840 | -2.05722 | 3376 ft | 165 kts | 229° |
| 2026-05-07 11:12 | 53.45125 | -2.07214 | 3182 ft | 162 kts | 228° |
| 2026-05-07 11:13 | 53.44437 | -2.08651 | 2932 ft | 158 kts | 228° |
| 2026-05-07 11:13 | 53.43757 | -2.10069 | 2716 ft | 155 kts | 228° |
| 2026-05-07 11:13 | 53.43073 | -2.11494 | 2508 ft | 154 kts | 227° |
| 2026-05-07 11:13 | 53.42411 | -2.12873 | 2305 ft | 154 kts | 227° |
| 2026-05-07 11:14 | 53.41738 | -2.14275 | 2095 ft | 155 kts | 227° |
| 2026-05-07 11:14 | 53.41062 | -2.15683 | 1887 ft | 155 kts | 227° |
| 2026-05-07 11:14 | 53.40387 | -2.17087 | 1679 ft | 154 kts | 227° |
| 2026-05-07 11:14 | 53.39708 | -2.18499 | 1473 ft | 154 kts | 227° |
| 2026-05-07 11:15 | 53.39055 | -2.19859 | 1252 ft | 141 kts | 226° |
| 2026-05-07 11:15 | 53.38477 | -2.21063 | 1048 ft | 125 kts | 226° |
| 2026-05-07 11:15 | 53.37942 | -2.22172 | 875 ft | 121 kts | 229° |
| 2026-05-07 11:15 | 53.37418 | -2.23258 | 705 ft | 117 kts | 227° |
| 2026-05-07 11:16 | 53.36906 | -2.24320 | 547 ft | 117 kts | 227° |
| 2026-05-07 11:16 | 53.36394 | -2.25380 | 392 ft | 117 kts | 228° |
| 2026-05-07 11:16 | 53.35882 | -2.26434 | 271 ft | 112 kts | 230° |
| 2026-05-07 11:16 | 53.35496 | -2.27237 | 249 ft | 65 kts | 230° |
| 2026-05-07 11:17 | 53.35318 | -2.27619 | 242 ft | 36 kts | 237° |
| 2026-05-07 11:17 | 53.35255 | -2.27923 | 238 ft | 13 kts | 261° |
| 2026-05-07 11:17 | 53.35236 | -2.28102 | 233 ft | 13 kts | 259° |
| 2026-05-07 11:17 | 53.35235 | -2.28123 | 231 ft | 0 kts | 261° |
| 2026-05-07 11:18 | 53.35235 | -2.28124 | 231 ft | 0 kts | 261° |
| 2026-05-07 11:18 | 53.35234 | -2.28136 | 231 ft | 6 kts | 262° |
| 2026-05-07 11:18 | 53.35261 | -2.28225 | 232 ft | 0 kts | 346° |
| 2026-05-07 11:19 | 53.35270 | -2.28227 | 232 ft | 9 kts | 354° |
| 2026-05-07 11:19 | 53.35395 | -2.28165 | 237 ft | 22 kts | 9° |
| 2026-05-07 11:19 | 53.35548 | -2.28062 | 235 ft | 26 kts | 43° |
| 2026-05-07 11:19 | 53.35639 | -2.27860 | 242 ft | 21 kts | 50° |
| 2026-05-07 11:20 | 53.35746 | -2.27751 | 248 ft | 9 kts | 2° |
| 2026-05-07 11:20 | 53.35795 | -2.27740 | 251 ft | 9 kts | 7° |
| 2026-05-07 11:20 | 53.35897 | -2.27727 | 255 ft | 19 kts | 0° |
| 2026-05-07 11:20 | 53.36015 | -2.27788 | 255 ft | 17 kts | 323° |
| 2026-05-07 11:21 | 53.36119 | -2.27923 | 255 ft | 22 kts | 322° |
| 2026-05-07 11:21 | 53.36235 | -2.28101 | 255 ft | 23 kts | 313° |
| 2026-05-07 11:21 | 53.36361 | -2.28311 | 255 ft | 28 kts | 315° |
| 2026-05-07 11:21 | 53.36467 | -2.28569 | 255 ft | 28 kts | 312° |
| 2026-05-07 11:22 | 53.36594 | -2.28784 | 255 ft | 19 kts | 319° |
| 2026-05-07 11:22 | 53.36630 | -2.28777 | 255 ft | 5 kts | 33° |
| 2026-05-07 11:22 | 53.36657 | -2.28739 | 255 ft | 5 kts | 42° |
| 2026-05-07 11:22 | 53.36687 | -2.28693 | 255 ft | 6 kts | 44° |
| 2026-05-07 11:23 | 53.36735 | -2.28606 | 255 ft | 13 kts | 46° |
| 2026-05-07 11:23 | 53.36818 | -2.28529 | 255 ft | 13 kts | 341° |
| 2026-05-07 11:23 | 53.36850 | -2.28581 | 255 ft | 7 kts | 315° |
| 2026-05-07 11:23 | 53.36859 | -2.28595 | 255 ft | 1 kts | 315° |
| 2026-05-07 11:24 | 53.36859 | -2.28596 | 255 ft | 0 kts | 315° |